Time;durP1;ratioP1;P1;durP2;ratioP2;P2;SDS_P1;SDS_P2;PMS_P1;PMS_P2;Temp;Humidity;BMP_temperature;BMP_pressure;BME280_temperature;BME280_humidity;BME280_pressure;Samples;Min_cycle;Max_cycle;Signal;HPM_P1;HPM_P2
2022/08/04 00:01:47;;;;;;;;;;;;;;;22.50;48.40;100647.05;1718389;82;20160;-76
2022/08/04 00:04:15;;;;;;;;;;;;;;;22.47;48.44;100642.09;1718218;82;20167;-76
2022/08/04 00:06:45;;;;;;;;;;;;;;;22.44;48.49;100646.66;1717340;82;21784;-76
2022/08/04 00:09:20;;;;;;;;;;;;;;;22.38;48.55;100647.08;1714082;82;20453;-76
2022/08/04 00:11:46;;;;;;;;;;;;;;;22.32;48.61;100650.23;1717110;82;20507;-76
2022/08/04 00:14:13;;;;;;;;;;;;;;;22.32;48.68;100648.05;1711731;83;20248;-76
2022/08/04 00:16:40;;;;;;;;;;;;;;;22.30;48.74;100648.30;1709142;84;20208;-76
2022/08/04 00:19:19;;;;;;;;;;;;;;;22.27;48.80;100655.55;1709540;84;21104;-76
2022/08/04 00:21:54;;;;;;;;;;;;;;;22.25;48.87;100648.72;1709484;84;20192;-76
2022/08/04 00:24:20;;;;;;;;;;;;;;;22.22;48.94;100649.20;1708585;84;20487;-77
2022/08/04 00:26:46;;;;;;;;;;;;;;;22.20;49.02;100645.34;1709497;84;20182;-76
2022/08/04 00:29:12;;;;;;;;;;;;;;;22.17;49.05;100647.19;1709025;83;20184;-77
2022/08/04 00:31:40;;;;;;;;;;;;;;;22.15;49.11;100646.62;1709495;84;21192;-77
2022/08/04 00:34:06;;;;;;;;;;;;;;;22.12;49.16;100641.67;1709478;83;20203;-77
2022/08/04 00:36:32;;;;;;;;;;;;;;;22.08;49.23;100647.81;1709693;84;20218;-77
2022/08/04 00:38:58;;;;;;;;;;;;;;;22.01;49.28;100638.44;1709595;84;20800;-76
2022/08/04 00:41:36;;;;;;;;;;;;;;;21.98;49.34;100645.71;1709276;84;20220;-76
2022/08/04 00:44:18;;;;;;;;;;;;;;;21.94;49.42;100640.45;1689360;84;21147;-76
2022/08/04 00:46:50;;;;;;;;;;;;;;;21.90;49.50;100643.34;1708689;83;20179;-76
2022/08/04 00:49:53;;;;;;;;;;;;;;;21.85;49.58;100638.59;1709209;83;20192;-77
2022/08/04 00:52:32;;;;;;;;;;;;;;;21.80;49.65;100641.20;1708692;83;20223;-76
2022/08/04 00:55:10;;;;;;;;;;;;;;;21.75;49.78;100642.97;1709575;84;20493;-77
2022/08/04 00:57:51;;;;;;;;;;;;;;;21.70;49.88;100637.44;1688332;83;21078;-77
2022/08/04 01:00:17;;;;;;;;;;;;;;;21.66;49.97;100646.59;1679625;82;20183;-76
2022/08/04 01:02:59;;;;;;;;;;;;;;;21.60;50.06;100638.56;1709733;84;20191;-76
2022/08/04 01:05:30;;;;;;;;;;;;;;;21.55;50.16;100641.15;1709580;84;20197;-77
2022/08/04 01:08:00;;;;;;;;;;;;;;;21.50;50.28;100645.12;1691133;84;20257;-76
2022/08/04 01:10:46;;;;;;;;;;;;;;;21.48;50.37;100648.58;1695979;83;21036;-76
2022/08/04 01:13:37;;;;;;;;;;;;;;;21.46;50.46;100646.64;1711187;83;20164;-76
2022/08/04 01:16:06;;;;;;;;;;;;;;;21.40;50.55;100643.80;1718853;82;20202;-76
2022/08/04 01:18:53;;;;;;;;;;;;;;;21.35;50.66;100638.27;1720527;82;20188;-76
2022/08/04 01:21:34;;;;;;;;;;;;;;;21.36;50.72;100644.48;1721371;82;20173;-76
2022/08/04 01:24:31;;;;;;;;;;;;;;;21.32;50.82;100644.69;1719955;83;21309;-76
2022/08/04 01:27:05;;;;;;;;;;;;;;;21.26;50.89;100642.36;1721044;82;20192;-77
2022/08/04 01:29:47;;;;;;;;;;;;;;;21.21;50.99;100644.14;1720074;82;20164;-76
2022/08/04 01:32:19;;;;;;;;;;;;;;;21.15;51.05;100648.59;1721008;82;20177;-76
2022/08/04 01:34:54;;;;;;;;;;;;;;;21.13;51.14;100642.58;1721447;82;20449;-76
2022/08/04 01:37:27;;;;;;;;;;;;;;;21.14;51.21;100641.53;1720772;83;21088;-76
2022/08/04 01:39:59;;;;;;;;;;;;;;;21.13;51.27;100649.36;1719998;82;20130;-76
2022/08/04 01:42:25;;;;;;;;;;;;;;;21.10;51.31;100651.19;1719066;82;20449;-76
2022/08/04 01:44:51;;;;;;;;;;;;;;;21.09;51.34;100645.95;1721231;82;20183;-76
2022/08/04 01:47:18;;;;;;;;;;;;;;;21.07;51.41;100646.73;1700507;82;20171;-76
2022/08/04 01:49:44;;;;;;;;;;;;;;;21.09;51.43;100642.72;1720997;82;21160;-76
2022/08/04 01:52:10;;;;;;;;;;;;;;;21.09;51.47;100644.59;1721220;83;20795;-76
2022/08/04 01:54:37;;;;;;;;;;;;;;;21.06;51.50;100641.83;1721250;82;20202;-77
2022/08/04 01:57:04;;;;;;;;;;;;;;;21.05;51.54;100641.52;1721117;82;20455;-76
2022/08/04 01:59:30;;;;;;;;;;;;;;;21.02;51.58;100643.34;1721368;82;20176;-76
2022/08/04 02:01:55;;;;;;;;;;;;;;;21.00;51.64;100640.58;1720859;82;21956;-76
2022/08/04 02:04:21;;;;;;;;;;;;;;;20.97;51.67;100641.84;1720765;82;20314;-76
2022/08/04 02:06:57;;;;;;;;;;;;;;;20.95;51.72;100641.27;1720883;83;20290;-76
2022/08/04 02:09:32;;;;;;;;;;;;;;;20.94;51.74;100636.89;1720901;83;20193;-76
2022/08/04 02:12:04;;;;;;;;;;;;;;;20.94;51.80;100636.89;1720747;82;20584;-76
2022/08/04 02:14:39;;;;;;;;;;;;;;;20.93;51.82;100631.19;1696292;82;21158;-77
2022/08/04 02:17:15;;;;;;;;;;;;;;;20.91;51.85;100626.52;1665372;85;20155;-76
2022/08/04 02:19:47;;;;;;;;;;;;;;;20.90;51.88;100631.62;1642974;85;20643;-76
2022/08/04 02:22:16;;;;;;;;;;;;;;;20.90;51.95;100627.03;1678792;85;20158;-76
2022/08/04 02:25:03;;;;;;;;;;;;;;;20.89;51.96;100634.06;1679448;85;20486;-76
2022/08/04 02:27:31;;;;;;;;;;;;;;;20.87;51.99;100632.09;1678161;85;21160;-76
2022/08/04 02:29:59;;;;;;;;;;;;;;;20.83;52.05;100627.66;1673743;85;20147;-76
2022/08/04 02:32:26;;;;;;;;;;;;;;;20.80;52.06;100626.77;1661643;85;20173;-76
2022/08/04 02:35:17;;;;;;;;;;;;;;;20.78;52.10;100630.26;1675103;85;20180;-76
2022/08/04 02:37:50;;;;;;;;;;;;;;;20.76;52.14;100624.75;1630895;86;20193;-76
2022/08/04 02:40:19;;;;;;;;;;;;;;;20.73;52.20;100627.92;1673686;85;21295;-76
2022/08/04 02:42:45;;;;;;;;;;;;;;;20.73;52.22;100629.28;1673843;85;20444;-76
2022/08/04 02:45:10;;;;;;;;;;;;;;;20.74;52.25;100623.64;1678585;85;20313;-76
2022/08/04 02:47:36;;;;;;;;;;;;;;;20.72;52.29;100625.73;1672527;85;20194;-76
2022/08/04 02:50:03;;;;;;;;;;;;;;;20.72;52.30;100619.52;1671611;85;20179;-76
2022/08/04 02:52:29;;;;;;;;;;;;;;;20.70;52.32;100621.09;1677880;85;21973;-76
2022/08/04 02:54:56;;;;;;;;;;;;;;;20.68;52.33;100625.09;1658776;85;20873;-76
2022/08/04 02:57:24;;;;;;;;;;;;;;;20.67;52.36;100627.50;1673364;85;20168;-76
2022/08/04 03:00:09;;;;;;;;;;;;;;;20.65;52.38;100622.84;1672583;85;20216;-76
2022/08/04 03:02:55;;;;;;;;;;;;;;;20.64;52.41;100619.83;1665533;84;20167;-76
2022/08/04 03:05:23;;;;;;;;;;;;;;;20.66;52.44;100619.06;1674629;83;21040;-77
2022/08/04 03:07:58;;;;;;;;;;;;;;;20.65;52.46;100628.27;1658295;84;20151;-76
2022/08/04 03:10:42;;;;;;;;;;;;;;;20.62;52.49;100623.31;1671806;85;20140;-77
2022/08/04 03:13:12;;;;;;;;;;;;;;;20.62;52.54;100624.67;1678143;85;20190;-76
2022/08/04 03:16:15;;;;;;;;;;;;;;;20.60;52.56;100618.63;1707774;82;20177;-76
2022/08/04 03:19:05;;;;;;;;;;;;;;;20.57;52.58;100618.58;1691761;83;21119;-76
2022/08/04 03:22:01;;;;;;;;;;;;;;;20.53;52.63;100617.38;1709569;84;20200;-76
2022/08/04 03:25:00;;;;;;;;;;;;;;;20.50;52.69;100617.01;1707428;83;20239;-76
2022/08/04 03:27:38;;;;;;;;;;;;;;;20.49;52.74;100618.05;1708044;82;20192;-76
2022/08/04 03:30:07;;;;;;;;;;;;;;;20.46;52.77;100618.52;1708386;83;20523;-76
2022/08/04 03:32:53;;;;;;;;;;;;;;;20.40;52.83;100619.75;1708973;84;21023;-76
2022/08/04 03:35:39;;;;;;;;;;;;;;;20.38;52.89;100617.78;1709013;84;20211;-76
2022/08/04 03:38:18;;;;;;;;;;;;;;;20.35;52.94;100619.59;1708954;84;20188;-76
2022/08/04 03:41:13;;;;;;;;;;;;;;;20.33;53.03;100619.01;1709018;84;20224;-76
2022/08/04 03:43:46;;;;;;;;;;;;;;;20.33;53.08;100617.66;1709079;83;20220;-76
2022/08/04 03:46:31;;;;;;;;;;;;;;;20.33;53.12;100620.36;1709219;82;21848;-76
2022/08/04 03:49:07;;;;;;;;;;;;;;;20.33;53.18;100623.07;1709658;84;20242;-76
2022/08/04 03:54:32;;;;;;;;;;;;;;;20.33;53.27;100621.72;1709597;84;20233;-76
2022/08/04 03:57:02;;;;;;;;;;;;;;;20.36;53.33;100632.09;1709527;84;20467;-76
2022/08/04 03:59:48;;;;;;;;;;;;;;;20.38;53.32;100628.61;1709290;84;21056;-76
2022/08/04 04:02:33;;;;;;;;;;;;;;;20.41;53.36;100626.80;1699963;83;20197;-76
2022/08/04 04:05:32;;;;;;;;;;;;;;;20.50;53.42;100627.84;1709389;82;20193;-76
2022/08/04 04:08:22;;;;;;;;;;;;;;;20.68;53.49;100621.03;1709383;84;20700;-76
2022/08/04 04:10:55;;;;;;;;;;;;;;;21.10;53.49;100624.06;1709505;84;20339;-76
2022/08/04 04:13:25;;;;;;;;;;;;;;;22.01;53.33;100625.38;1689111;83;21195;-76
2022/08/04 04:16:16;;;;;;;;;;;;;;;22.87;52.81;100619.77;1709064;83;20205;-76
2022/08/04 04:18:49;;;;;;;;;;;;;;;23.71;52.26;100613.81;1692176;83;20440;-76
2022/08/04 04:21:24;;;;;;;;;;;;;;;24.45;51.49;100622.42;1708758;84;20714;-76
2022/08/04 04:24:03;;;;;;;;;;;;;;;24.93;50.87;100623.77;1709517;84;20172;-76
2022/08/04 04:26:33;;;;;;;;;;;;;;;25.57;50.24;100623.78;1707748;83;21851;-76
2022/08/04 04:29:21;;;;;;;;;;;;;;;25.83;49.42;100628.30;1708439;84;20208;-76
2022/08/04 04:31:54;;;;;;;;;;;;;;;25.99;48.74;100630.58;1709193;84;20172;-76
2022/08/04 04:34:56;;;;;;;;;;;;;;;26.40;48.07;100632.96;1709244;84;20928;-76
2022/08/04 04:37:38;;;;;;;;;;;;;;;26.79;47.40;100629.52;1709587;84;20420;-76
2022/08/04 04:40:11;;;;;;;;;;;;;;;27.16;46.64;100637.52;1707990;83;22535;-76
2022/08/04 04:42:45;;;;;;;;;;;;;;;27.62;46.01;100631.48;1709134;84;20120;-76
2022/08/04 04:45:22;;;;;;;;;;;;;;;27.74;45.33;100632.57;1709410;84;20160;-77
2022/08/04 04:47:57;;;;;;;;;;;;;;;27.92;44.79;100629.23;1708835;84;20409;-77
2022/08/04 04:50:29;;;;;;;;;;;;;;;28.10;44.31;100635.52;1709218;83;20319;-76
2022/08/04 04:53:07;;;;;;;;;;;;;;;28.28;43.73;100632.16;1708984;84;21939;-77
2022/08/04 04:55:36;;;;;;;;;;;;;;;28.28;42.97;100632.16;1708479;84;20176;-77
2022/08/04 04:58:02;;;;;;;;;;;;;;;27.84;42.71;100629.80;1709172;84;20170;-77
2022/08/04 05:00:55;;;;;;;;;;;;;;;27.35;42.99;100636.97;1709090;82;20472;-77
2022/08/04 05:03:45;;;;;;;;;;;;;;;26.82;43.33;100637.76;1708800;84;20211;-77
2022/08/04 05:06:47;;;;;;;;;;;;;;;26.47;43.69;100633.53;1689344;83;22918;-77
2022/08/04 05:09:31;;;;;;;;;;;;;;;26.37;43.99;100638.97;1708742;83;20753;-77
2022/08/04 05:12:10;;;;;;;;;;;;;;;26.29;44.20;100635.66;1708714;83;20208;-77
2022/08/04 05:14:42;;;;;;;;;;;;;;;26.31;44.25;100630.77;1712260;82;21189;-77
2022/08/04 05:17:21;;;;;;;;;;;;;;;26.39;44.30;100628.61;1722572;82;20165;-76
2022/08/04 05:20:08;;;;;;;;;;;;;;;26.55;44.29;100624.81;1720938;82;22506;-76
2022/08/04 05:22:38;;;;;;;;;;;;;;;26.71;44.29;100629.22;1713301;82;20181;-77
2022/08/04 05:25:07;;;;;;;;;;;;;;;26.83;44.25;100630.37;1720299;82;20783;-77
2022/08/04 05:27:39;;;;;;;;;;;;;;;26.89;44.19;100630.11;1720152;83;20562;-77
2022/08/04 05:30:06;;;;;;;;;;;;;;;26.93;44.11;100639.42;1719801;82;20373;-77
2022/08/04 05:32:36;;;;;;;;;;;;;;;27.01;44.04;100635.33;1720698;82;21873;-77
2022/08/04 05:35:05;;;;;;;;;;;;;;;27.01;43.91;100640.27;1720478;82;20133;-77
2022/08/04 05:37:31;;;;;;;;;;;;;;;26.93;43.87;100635.86;1720458;83;20211;-77
2022/08/04 05:39:59;;;;;;;;;;;;;;;26.88;43.86;100645.45;1720370;82;21129;-77
2022/08/04 05:42:25;;;;;;;;;;;;;;;27.01;43.87;100644.37;1720495;82;20175;-77
2022/08/04 05:44:51;;;;;;;;;;;;;;;27.00;43.77;100641.34;1719281;82;21778;-77
2022/08/04 05:47:19;;;;;;;;;;;;;;;26.93;43.65;100646.27;1719931;82;20850;-77
2022/08/04 05:49:44;;;;;;;;;;;;;;;26.95;43.68;100639.95;1721097;82;20162;-77
2022/08/04 05:52:10;;;;;;;;;;;;;;;27.13;43.68;100642.17;1720783;82;20926;-77
2022/08/04 05:54:36;;;;;;;;;;;;;;;27.25;43.51;100645.47;1719730;83;20373;-77
2022/08/04 05:57:06;;;;;;;;;;;;;;;27.21;43.40;100648.48;1720293;82;22604;-77
2022/08/04 05:59:31;;;;;;;;;;;;;;;27.41;43.40;100644.11;1722867;82;20138;-77
2022/08/04 06:01:58;;;;;;;;;;;;;;;27.60;43.36;100645.20;1724833;82;20258;-77
2022/08/04 06:04:28;;;;;;;;;;;;;;;27.77;43.24;100640.23;1730798;82;21198;-77
2022/08/04 06:06:54;;;;;;;;;;;;;;;27.81;43.09;100642.70;1724141;81;20122;-80
2022/08/04 06:09:20;;;;;;;;;;;;;;;27.92;43.10;100640.20;1721140;81;21845;-76
2022/08/04 06:11:45;;;;;;;;;;;;;;;28.03;42.95;100637.70;1724650;81;20923;-76
2022/08/04 06:14:11;;;;;;;;;;;;;;;28.06;42.76;100643.17;1715862;81;20273;-75
2022/08/04 06:16:38;;;;;;;;;;;;;;;28.21;42.75;100641.79;1667935;82;20469;-76
2022/08/04 06:19:06;;;;;;;;;;;;;;;28.22;42.54;100646.98;1634685;87;20162;-76
2022/08/04 06:21:32;;;;;;;;;;;;;;;28.39;42.64;100640.34;1603085;88;21798;-76
2022/08/04 06:23:57;;;;;;;;;;;;;;;28.54;42.43;100649.84;1665493;84;20950;-76
2022/08/04 06:26:24;;;;;;;;;;;;;;;28.71;42.36;100648.41;1688886;84;20268;-76
2022/08/04 06:28:50;;;;;;;;;;;;;;;28.69;42.13;100652.00;1666847;85;20381;-75
2022/08/04 06:31:30;;;;;;;;;;;;;;;28.69;41.96;100653.92;1668752;84;20163;-76
2022/08/04 06:33:45;;;;;;;;;;;;;;;28.80;41.93;100648.64;1667745;84;22544;-75
2022/08/04 06:36:11;;;;;;;;;;;;;;;28.90;41.80;100646.38;1669577;85;20982;-75
2022/08/04 06:38:36;;;;;;;;;;;;;;;28.85;41.47;100651.38;1670389;84;20203;-76
2022/08/04 06:41:02;;;;;;;;;;;;;;;28.86;41.42;100644.75;1668320;84;20423;-75
2022/08/04 06:43:28;;;;;;;;;;;;;;;29.13;41.40;100649.22;1671857;84;20268;-76
2022/08/04 06:45:54;;;;;;;;;;;;;;;29.28;41.23;100644.19;1664345;85;21608;-76
2022/08/04 06:48:20;;;;;;;;;;;;;;;29.44;41.16;100650.39;1670868;84;20152;-76
2022/08/04 06:50:47;;;;;;;;;;;;;;;29.51;41.07;100648.13;1668151;85;20186;-76
2022/08/04 06:53:14;;;;;;;;;;;;;;;29.62;40.93;100649.67;1663975;83;20411;-76
2022/08/04 06:55:40;;;;;;;;;;;;;;;29.64;40.79;100645.52;1668851;84;20142;-75
2022/08/04 06:58:06;;;;;;;;;;;;;;;29.85;40.63;100650.27;1656200;85;23400;-75
2022/08/04 07:00:32;;;;;;;;;;;;;;;30.03;40.54;100645.41;1628624;86;20214;-76
2022/08/04 07:02:58;;;;;;;;;;;;;;;30.31;40.50;100651.12;1635911;86;20263;-76
2022/08/04 07:05:24;;;;;;;;;;;;;;;30.43;40.31;100652.94;1634993;85;20483;-76
2022/08/04 07:07:50;;;;;;;;;;;;;;;30.35;40.08;100652.17;1608822;88;20179;-76
2022/08/04 07:10:15;;;;;;;;;;;;;;;30.32;39.92;100650.02;1663876;84;21808;-76
2022/08/04 07:12:41;;;;;;;;;;;;;;;30.13;39.52;100642.53;1664020;84;20819;-76
2022/08/04 07:15:08;;;;;;;;;;;;;;;29.96;39.31;100649.61;1639192;85;20188;-76
2022/08/04 07:17:34;;;;;;;;;;;;;;;29.77;39.18;100649.50;1638290;85;20443;-77
2022/08/04 07:20:00;;;;;;;;;;;;;;;29.81;39.13;100645.06;1646739;85;20197;-77
2022/08/04 07:22:26;;;;;;;;;;;;;;;29.99;39.17;100652.59;1655221;84;21831;-76
2022/08/04 07:24:56;;;;;;;;;;;;;;;30.17;39.11;100657.34;1648562;84;20232;-75
2022/08/04 07:27:22;;;;;;;;;;;;;;;30.26;38.97;100652.58;1648319;84;20615;-75
2022/08/04 07:29:48;;;;;;;;;;;;;;;30.46;38.95;100653.72;1668631;84;20930;-76
2022/08/04 07:32:15;;;;;;;;;;;;;;;30.52;38.77;100653.34;1711060;82;20192;-76
2022/08/04 07:34:41;;;;;;;;;;;;;;;30.55;38.61;100650.00;1707710;82;21785;-77
2022/08/04 07:37:07;;;;;;;;;;;;;;;30.58;38.42;100653.53;1695676;82;20728;-77
2022/08/04 07:39:35;;;;;;;;;;;;;;;30.47;38.09;100652.02;1712555;82;20271;-76
2022/08/04 07:42:00;;;;;;;;;;;;;;;30.48;38.08;100648.17;1708631;82;20436;-76
2022/08/04 07:44:26;;;;;;;;;;;;;;;30.53;38.03;100650.04;1703000;82;20195;-76
2022/08/04 07:46:52;;;;;;;;;;;;;;;30.72;37.95;100651.68;1708593;82;21793;-76
2022/08/04 07:49:19;;;;;;;;;;;;;;;30.70;37.69;100651.72;1707634;82;20829;-76
2022/08/04 07:51:44;;;;;;;;;;;;;;;30.63;37.55;100652.65;1713266;82;20201;-76
2022/08/04 07:54:10;;;;;;;;;;;;;;;30.64;37.45;100650.17;1706969;82;20392;-77
2022/08/04 07:56:38;;;;;;;;;;;;;;;30.83;37.36;100654.28;1687794;83;20796;-76
2022/08/04 07:59:05;;;;;;;;;;;;;;;30.85;37.10;100654.27;1707950;82;21822;-76
2022/08/04 08:01:31;;;;;;;;;;;;;;;30.84;37.08;100649.86;1708792;82;20153;-76
2022/08/04 08:03:57;;;;;;;;;;;;;;;30.94;36.78;100646.95;1710241;82;20676;-76
2022/08/04 08:06:23;;;;;;;;;;;;;;;31.00;36.82;100649.12;1705014;82;20498;-76
2022/08/04 08:08:49;;;;;;;;;;;;;;;31.12;36.67;100653.04;1707304;82;20176;-77
2022/08/04 08:11:15;;;;;;;;;;;;;;;31.17;36.60;100644.67;1706058;82;21878;-77
2022/08/04 08:13:42;;;;;;;;;;;;;;;31.23;36.46;100652.31;1715012;82;20860;-76
2022/08/04 08:16:08;;;;;;;;;;;;;;;31.30;36.28;100643.66;1697090;82;20450;-77
2022/08/04 08:18:34;;;;;;;;;;;;;;;31.27;35.95;100646.47;1697360;84;20538;-77
2022/08/04 08:20:59;;;;;;;;;;;;;;;31.50;35.94;100643.30;1696789;82;20766;-77
2022/08/04 08:23:25;;;;;;;;;;;;;;;31.57;35.68;100639.62;1695384;83;22647;-77
2022/08/04 08:25:51;;;;;;;;;;;;;;;31.75;35.69;100636.53;1689454;84;20217;-76
2022/08/04 08:28:17;;;;;;;;;;;;;;;31.90;35.48;100639.83;1694751;82;20213;-77
2022/08/04 08:30:43;;;;;;;;;;;;;;;32.03;35.52;100634.88;1691106;84;20676;-77
2022/08/04 08:33:11;;;;;;;;;;;;;;;32.04;35.33;100632.38;1696794;83;20251;-77
2022/08/04 08:35:55;;;;;;;;;;;;;;;32.19;35.35;100634.83;1696514;82;22642;-77
2022/08/04 08:38:25;;;;;;;;;;;;;;;32.28;35.27;100632.17;1682899;82;20926;-76
2022/08/04 08:40:57;;;;;;;;;;;;;;;32.32;35.14;100635.14;1686854;84;20459;-77
2022/08/04 08:43:55;;;;;;;;;;;;;;;32.33;35.13;100639.55;1704300;82;20666;-77
2022/08/04 08:46:57;;;;;;;;;;;;;;;32.41;35.02;100641.56;1693255;82;20143;-77
2022/08/04 08:50:00;;;;;;;;;;;;;;;32.46;34.95;100631.23;1693649;84;22002;-76
2022/08/04 08:52:44;;;;;;;;;;;;;;;32.60;34.66;100638.14;1691348;84;20120;-76
2022/08/04 08:55:16;;;;;;;;;;;;;;;32.58;34.53;100636.23;1696667;82;20183;-77
2022/08/04 08:57:58;;;;;;;;;;;;;;;32.81;34.51;100632.41;1697073;84;20543;-77
2022/08/04 09:00:34;;;;;;;;;;;;;;;32.88;34.30;100630.02;1697093;83;20157;-77
2022/08/04 09:03:12;;;;;;;;;;;;;;;32.71;34.10;100631.27;1696062;83;21848;-77
2022/08/04 09:06:02;;;;;;;;;;;;;;;32.78;34.00;100621.98;1696617;82;20741;-77
2022/08/04 09:08:34;;;;;;;;;;;;;;;32.86;33.77;100623.19;1692137;83;20421;-77
2022/08/04 09:11:15;;;;;;;;;;;;;;;32.87;33.51;100628.38;1692971;82;21113;-76
2022/08/04 09:13:51;;;;;;;;;;;;;;;32.84;33.34;100629.02;1696354;83;20439;-76
2022/08/04 09:16:20;;;;;;;;;;;;;;;32.81;33.08;100632.41;1700213;83;22618;-76
2022/08/04 09:19:01;;;;;;;;;;;;;;;32.68;32.44;100633.27;1700209;84;20184;-76
2022/08/04 09:21:37;;;;;;;;;;;;;;;32.51;32.29;100624.80;1708710;83;20180;-76
2022/08/04 09:24:09;;;;;;;;;;;;;;;32.52;32.22;100631.92;1694033;83;20376;-76
2022/08/04 09:26:56;;;;;;;;;;;;;;;32.61;32.14;100631.50;1708491;84;20200;-76
2022/08/04 09:29:42;;;;;;;;;;;;;;;32.87;32.15;100632.53;1707829;84;22527;-76
2022/08/04 09:32:28;;;;;;;;;;;;;;;32.94;31.97;100623.23;1689329;83;20488;-76
2022/08/04 09:35:23;;;;;;;;;;;;;;;32.99;31.80;100628.66;1702802;82;20160;-76
2022/08/04 09:38:11;;;;;;;;;;;;;;;32.95;31.55;100624.88;1694472;83;20628;-76
2022/08/04 09:40:53;;;;;;;;;;;;;;;32.94;31.51;100616.89;1698970;83;20159;-76
2022/08/04 09:43:48;;;;;;;;;;;;;;;32.98;31.15;100617.90;1685256;83;21890;-76
2022/08/04 09:46:26;;;;;;;;;;;;;;;32.87;31.10;100615.95;1700141;83;20197;-76
2022/08/04 09:48:58;;;;;;;;;;;;;;;32.96;31.15;100609.94;1694785;83;20185;-76
2022/08/04 09:51:54;;;;;;;;;;;;;;;33.18;31.20;100614.66;1701475;84;20368;-76
2022/08/04 09:54:32;;;;;;;;;;;;;;;33.13;30.78;100607.89;1695369;84;20192;-76
2022/08/04 09:57:17;;;;;;;;;;;;;;;32.86;30.38;100614.33;1707661;84;21768;-76
2022/08/04 09:59:55;;;;;;;;;;;;;;;32.77;30.02;100613.98;1708185;83;20124;-76
2022/08/04 10:02:21;;;;;;;;;;;;;;;32.78;30.13;100610.92;1702793;82;20461;-76
2022/08/04 10:04:46;;;;;;;;;;;;;;;32.97;30.21;100617.08;1699719;84;20708;-76
2022/08/04 10:07:19;;;;;;;;;;;;;;;32.97;30.08;100603.26;1708259;84;20187;-76
2022/08/04 10:10:09;;;;;;;;;;;;;;;33.11;30.34;100608.19;1707997;84;23052;-76
2022/08/04 10:12:51;;;;;;;;;;;;;;;33.13;30.09;100606.50;1701931;83;20161;-76
2022/08/04 10:15:19;;;;;;;;;;;;;;;33.02;30.04;100603.14;1701135;84;20191;-76
2022/08/04 10:18:18;;;;;;;;;;;;;;;33.20;30.03;100606.06;1708996;83;20446;-76
2022/08/04 10:21:04;;;;;;;;;;;;;;;33.23;29.98;100594.36;1708627;84;20230;-76
2022/08/04 10:23:50;;;;;;;;;;;;;;;33.22;29.94;100601.02;1708038;84;21755;-76
2022/08/04 10:26:32;;;;;;;;;;;;;;;33.05;29.67;100602.52;1709159;83;20207;-76
2022/08/04 10:29:12;;;;;;;;;;;;;;;32.85;29.33;100592.53;1709554;84;20188;-76
2022/08/04 10:32:00;;;;;;;;;;;;;;;32.77;29.35;100599.61;1704863;84;20844;-76
2022/08/04 10:34:28;;;;;;;;;;;;;;;32.63;29.15;100601.05;1704652;84;20145;-76
2022/08/04 10:37:19;;;;;;;;;;;;;;;32.62;29.25;100595.81;1698119;84;22696;-76
2022/08/04 10:40:48;;;;;;;;;;;;;;;32.68;29.23;100591.83;1708120;83;20180;-76
2022/08/04 10:42:41;;;;;;;;;;;;;;;32.76;29.24;100595.80;1670905;82;20188;-76
2022/08/04 10:45:18;;;;;;;;;;;;;;;32.84;29.21;100589.50;1707587;83;20398;-75
2022/08/04 10:47:51;;;;;;;;;;;;;;;32.75;29.07;100584.48;1692635;83;20220;-76
2022/08/04 10:50:16;;;;;;;;;;;;;;;32.70;29.14;100584.59;1699663;83;21853;-76
2022/08/04 10:52:49;;;;;;;;;;;;;;;32.72;29.12;100572.69;1698905;84;20235;-78
2022/08/04 10:55:20;;;;;;;;;;;;;;;32.67;28.93;100584.66;1705409;83;20530;-78
2022/08/04 10:57:51;;;;;;;;;;;;;;;32.71;28.95;100588.44;1701345;84;20641;-79
2022/08/04 11:00:29;;;;;;;;;;;;;;;32.75;28.93;100579.78;1699578;82;20168;-78
2022/08/04 11:03:16;;;;;;;;;;;;;;;32.72;28.94;100579.03;1698315;82;22050;-79
2022/08/04 11:05:50;;;;;;;;;;;;;;;32.69;28.94;100578.25;1702579;82;20233;-78
2022/08/04 11:08:30;;;;;;;;;;;;;;;32.64;28.89;100572.30;1695449;83;20157;-78
2022/08/04 11:11:27;;;;;;;;;;;;;;;32.61;28.85;100566.59;1702139;83;21217;-78
2022/08/04 11:14:05;;;;;;;;;;;;;;;32.63;28.91;100560.17;1707943;83;20208;-78
2022/08/04 11:16:48;;;;;;;;;;;;;;;32.67;28.98;100565.33;1705967;82;21755;-78
2022/08/04 11:19:26;;;;;;;;;;;;;;;32.84;29.07;100566.84;1720561;82;20235;-78
2022/08/04 11:21:55;;;;;;;;;;;;;;;32.99;29.02;100562.32;1701775;82;20160;-78
2022/08/04 11:24:52;;;;;;;;;;;;;;;32.95;29.04;100565.46;1715640;82;21189;-78
2022/08/04 11:27:24;;;;;;;;;;;;;;;33.06;29.09;100567.40;1702767;82;20149;-78
2022/08/04 11:30:02;;;;;;;;;;;;;;;33.03;28.90;100565.27;1678057;82;21865;-78
2022/08/04 11:33:05;;;;;;;;;;;;;;;32.99;28.93;100565.09;1715201;82;20234;-79
2022/08/04 11:35:36;;;;;;;;;;;;;;;33.04;28.98;100555.86;1711799;82;20191;-79
2022/08/04 11:38:11;;;;;;;;;;;;;;;33.05;28.95;100552.76;1724591;82;20470;-79
2022/08/04 11:40:43;;;;;;;;;;;;;;;32.99;28.89;100560.94;1730349;82;20473;-78
2022/08/04 11:43:13;;;;;;;;;;;;;;;33.13;29.03;100564.48;1738674;82;21919;-78
2022/08/04 11:45:48;;;;;;;;;;;;;;;33.36;29.05;100568.56;1728741;82;21014;-79
2022/08/04 11:48:21;;;;;;;;;;;;;;;33.34;28.92;100570.84;1729780;82;20317;-78
2022/08/04 11:50:50;;;;;;;;;;;;;;;33.31;29.00;100564.58;1709360;82;20412;-78
2022/08/04 11:53:19;;;;;;;;;;;;;;;33.32;28.84;100567.59;1706043;82;20189;-78
2022/08/04 11:55:48;;;;;;;;;;;;;;;33.18;28.72;100569.63;1714107;82;21732;-78
2022/08/04 11:58:13;;;;;;;;;;;;;;;33.08;28.71;100565.13;1718281;82;20153;-78
2022/08/04 12:00:41;;;;;;;;;;;;;;;33.12;28.76;100550.39;1713994;82;20657;-78
2022/08/04 12:03:29;;;;;;;;;;;;;;;33.13;28.75;100554.80;1711304;82;21088;-78
2022/08/04 12:06:02;;;;;;;;;;;;;;;33.19;28.80;100556.03;1723501;82;20173;-78
2022/08/04 12:08:52;;;;;;;;;;;;;;;33.38;28.83;100560.78;1721706;82;21856;-78
2022/08/04 12:11:51;;;;;;;;;;;;;;;33.27;28.58;100555.27;1706247;82;20180;-78
2022/08/04 12:14:40;;;;;;;;;;;;;;;33.27;28.70;100545.59;1711059;82;20181;-78
2022/08/04 12:17:06;;;;;;;;;;;;;;;33.41;28.78;100549.91;1717041;82;20572;-78
2022/08/04 12:19:46;;;;;;;;;;;;;;;33.43;28.70;100552.33;1718701;82;20191;-78
2022/08/04 12:22:24;;;;;;;;;;;;;;;33.24;28.57;100555.91;1718552;82;21857;-78
2022/08/04 12:25:01;;;;;;;;;;;;;;;33.10;28.60;100547.14;1718413;82;20184;-78
2022/08/04 12:27:34;;;;;;;;;;;;;;;33.08;28.73;100557.65;1719058;82;20164;-78
2022/08/04 12:30:00;;;;;;;;;;;;;;;33.10;28.70;100544.38;1718830;82;20413;-78
2022/08/04 12:32:54;;;;;;;;;;;;;;;33.17;28.59;100554.98;1718310;83;20164;-79
2022/08/04 12:35:32;;;;;;;;;;;;;;;33.23;28.65;100547.36;1718054;82;21840;-79
2022/08/04 12:38:04;;;;;;;;;;;;;;;33.12;28.51;100550.95;1717598;82;20169;-79
2022/08/04 12:40:35;;;;;;;;;;;;;;;33.10;28.59;100544.38;1718461;82;20506;-78
2022/08/04 12:43:13;;;;;;;;;;;;;;;33.15;28.64;100538.70;1719010;82;20359;-78
2022/08/04 12:45:43;;;;;;;;;;;;;;;33.14;28.65;100539.03;1725498;82;20160;-79
2022/08/04 12:48:09;;;;;;;;;;;;;;;33.07;28.62;100524.81;1718243;82;21961;-79
2022/08/04 12:50:35;;;;;;;;;;;;;;;33.11;28.69;100532.17;1726561;82;20960;-78
2022/08/04 12:53:01;;;;;;;;;;;;;;;33.13;28.66;100527.16;1723055;82;20193;-79
2022/08/04 12:55:29;;;;;;;;;;;;;;;33.12;28.75;100532.98;1673731;83;20357;-78
2022/08/04 12:57:55;;;;;;;;;;;;;;;33.19;28.77;100532.53;1718214;82;20192;-78
2022/08/04 13:00:34;;;;;;;;;;;;;;;33.21;28.71;100520.61;1718236;82;21798;-79
2022/08/04 13:03:11;;;;;;;;;;;;;;;33.18;28.70;100532.30;1718642;83;20281;-79
2022/08/04 13:05:39;;;;;;;;;;;;;;;33.04;28.58;100526.83;1718537;82;20141;-79
2022/08/04 13:08:05;;;;;;;;;;;;;;;32.98;28.54;100523.37;1718435;82;20471;-78
2022/08/04 13:10:31;;;;;;;;;;;;;;;33.00;28.56;100525.27;1714353;82;20292;-78
2022/08/04 13:13:01;;;;;;;;;;;;;;;33.04;28.53;100518.54;1717340;82;21791;-78
2022/08/04 13:15:27;;;;;;;;;;;;;;;33.03;28.46;100524.63;1719167;82;20463;-79